Ridgetown, Canada
Current Conditions -  °F | °C
As of 9:16 PM on Saturday 22 Nov 2014 (Local Time) from CYCK Reporting Station
Light Rain Light Rain  
Wind Chill:   Ceiling: 3400
Heat Index:   Visibility: 9mi
Dew Point:   Wind: 22mph
Humidity: 81%   Direction: 230°SW
Pressure: 29.96"   Gusts: 28mph
Location:  42.43°N, 81.88°W
Report Text: CYCK 230216Z AUTO 23019G24KT 9SM -RA OVC034 08/05 A2996 RMK SLP151
Loading
Personal Weather Stations






























Interactive Weather Map New forecast layout! Learn more

10-Day Weather Forecast

Advertisements
Track Severe Weather on mobile